Pope Valley, California
Current Conditions -  °F | °C
As of 4:53 PM on Thursday 18 Dec 2014 (Local Time) from KSTS Reporting Station
Overcast Overcast  
Wind Chill: 55°   Ceiling: 2100
Heat Index: 55°   Visibility: 9mi
Dew Point: 52°   Wind: 3mph
Humidity: 89%   Direction: 130°SE
Pressure: 30.12"   Gusts: NA
Location:  38.62°N, 122.43°W
Report Text: KSTS 190053Z 13003KT 9SM BKN021 BKN028 OVC046 13/11 A3012 RMK AO2 SLP194 T01280111
Loading
Personal Weather Stations






























Interactive Weather Map New forecast layout! Learn more

10-Day Weather Forecast

Advertisements
Track Severe Weather on mobile